createdAt,value
2023-08-14T00:00:13.659Z,97361.75
2023-08-14T00:03:15.271Z,97360.91
2023-08-14T00:06:16.887Z,97363.38
2023-08-14T00:09:18.441Z,97359.66
2023-08-14T00:12:19.947Z,97355.91
2023-08-14T00:15:21.868Z,97344.59
2023-08-14T00:18:23.419Z,97344.47
2023-08-14T00:21:25.223Z,97333.16
2023-08-14T00:24:26.838Z,97320.22
2023-08-14T00:27:28.412Z,97316.00
2023-08-14T00:30:30.115Z,97313.31
2023-08-14T00:33:32.120Z,97310.66
2023-08-14T00:36:34.072Z,97302.03
2023-08-14T00:39:35.716Z,97305.41
2023-08-14T00:42:39.461Z,97311.84
2023-08-14T00:45:46.349Z,97292.44
2023-08-14T00:48:48.865Z,97278.44
2023-08-14T00:51:50.488Z,97270.88
2023-08-14T00:54:52.845Z,97260.84
2023-08-14T00:57:55.458Z,97263.31
2023-08-14T01:00:59.042Z,97261.41
2023-08-14T01:04:00.699Z,97263.41
2023-08-14T01:07:04.723Z,97262.84
2023-08-14T01:10:08.865Z,97256.31
2023-08-14T01:13:31.931Z,97254.59
2023-08-14T01:16:39.385Z,97247.94
2023-08-14T01:19:42.781Z,97244.31
2023-08-14T01:23:05.797Z,97248.06
2023-08-14T01:26:08.362Z,97243.97
2023-08-14T01:29:10.155Z,97243.97
2023-08-14T01:32:11.693Z,97235.34
2023-08-14T01:35:13.502Z,97239.53
2023-08-14T01:38:40.684Z,97238.63
2023-08-14T01:42:01.051Z,97235.34
2023-08-14T01:45:08.329Z,97235.34
2023-08-14T01:48:12.257Z,97235.81
2023-08-14T01:51:14.779Z,97232.91
2023-08-14T01:54:16.383Z,97234.28
2023-08-14T01:57:18.106Z,97236.97
2023-08-14T02:00:20.703Z,97244.56
2023-08-14T02:03:22.441Z,97243.16
2023-08-14T02:06:24.086Z,97239.91
2023-08-14T02:09:25.632Z,97237.22
2023-08-14T02:12:27.300Z,97237.47
2023-08-14T02:15:28.848Z,97245.00
2023-08-14T02:18:30.547Z,97253.31
2023-08-14T02:21:32.108Z,97249.69
2023-08-14T02:24:33.817Z,97256.91
2023-08-14T02:27:35.347Z,97261.88
2023-08-14T02:30:38.462Z,97245.22
2023-08-14T02:33:40.747Z,97236.81
2023-08-14T02:36:42.366Z,97240.09
2023-08-14T02:39:44.298Z,97240.09
2023-08-14T02:42:45.822Z,97235.66
2023-08-14T02:45:47.466Z,97230.88
2023-08-14T02:48:49.024Z,97230.09
2023-08-14T02:51:51.716Z,97224.72
2023-08-14T02:54:53.280Z,97225.53
2023-08-14T02:57:54.871Z,97224.72
2023-08-14T03:00:56.417Z,97228.22
2023-08-14T03:03:57.980Z,97227.97
2023-08-14T03:06:59.575Z,97232.03
2023-08-14T03:10:01.111Z,97241.72
2023-08-14T03:13:02.748Z,97237.19
2023-08-14T03:16:04.468Z,97250.59
2023-08-14T03:19:06.043Z,97264.22
2023-08-14T03:22:07.606Z,97260.38
2023-08-14T03:25:09.331Z,97287.31
2023-08-14T03:28:11.151Z,97295.13
2023-08-14T03:31:14.179Z,97282.97
2023-08-14T03:34:15.830Z,97287.53
2023-08-14T03:37:18.128Z,97286.13
2023-08-14T03:40:19.743Z,97284.28
2023-08-14T03:43:21.282Z,97268.75
2023-08-14T03:46:22.875Z,97239.16
2023-08-14T03:49:24.474Z,97246.84
2023-08-14T03:52:26.169Z,97247.78
2023-08-14T03:55:29.179Z,97245.69
2023-08-14T03:58:32.256Z,97238.41
2023-08-14T04:01:33.919Z,97237.59
2023-08-14T04:04:36.354Z,97238.03
2023-08-14T04:07:37.906Z,97241.31
2023-08-14T04:10:40.211Z,97239.06
2023-08-14T04:13:41.816Z,97234.63
2023-08-14T04:16:44.998Z,97235.19
2023-08-14T04:19:46.859Z,97237.41
2023-08-14T04:22:48.417Z,97229.72
2023-08-14T04:25:49.959Z,97220.28
2023-08-14T04:28:52.761Z,97215.81
2023-08-14T04:31:54.590Z,97209.06
2023-08-14T04:34:56.127Z,97206.66
2023-08-14T04:37:57.726Z,97194.56
2023-08-14T04:41:00.234Z,97201.06
2023-08-14T04:44:01.979Z,97199.41
2023-08-14T04:47:05.283Z,97190.38
2023-08-14T04:50:07.842Z,97187.91
2023-08-14T04:53:10.029Z,97177.44
2023-08-14T04:56:14.453Z,97175.56
2023-08-14T04:59:16.052Z,97175.56
2023-08-14T05:02:18.711Z,97168.72
2023-08-14T05:05:20.927Z,97175.41
2023-08-14T05:08:22.741Z,97170.19
2023-08-14T05:11:25.347Z,97177.31
2023-08-14T05:14:27.035Z,97168.63
2023-08-14T05:17:28.745Z,97164.91
2023-08-14T05:20:34.513Z,97168.41
2023-08-14T05:23:36.058Z,97169.00
2023-08-14T05:26:37.577Z,97165.47
2023-08-14T05:29:39.238Z,97164.59
2023-08-14T05:32:41.212Z,97169.50
2023-08-14T05:35:42.886Z,97165.34
2023-08-14T05:38:46.571Z,97167.06
2023-08-14T05:41:48.170Z,97167.13
2023-08-14T05:44:49.702Z,97161.28
2023-08-14T05:47:51.238Z,97167.94
2023-08-14T05:50:55.369Z,97151.53
2023-08-14T05:53:56.889Z,97157.78
2023-08-14T05:56:58.398Z,97153.72
2023-08-14T05:59:59.929Z,97152.63
2023-08-14T06:03:01.887Z,97150.34
2023-08-14T06:06:05.720Z,97149.19
2023-08-14T06:09:07.840Z,97138.47
2023-08-14T06:12:09.525Z,97150.44
2023-08-14T06:15:12.173Z,97142.22
2023-08-14T06:18:13.703Z,97146.91
2023-08-14T06:21:15.240Z,97154.19
2023-08-14T06:24:17.488Z,97155.22
2023-08-14T06:27:19.964Z,97144.16
2023-08-14T06:30:23.152Z,97135.34
2023-08-14T06:33:25.258Z,97131.38
2023-08-14T06:36:26.827Z,97132.91
2023-08-14T06:39:29.017Z,97139.56
2023-08-14T06:42:30.588Z,97137.72
2023-08-14T06:45:32.349Z,97130.84
2023-08-14T06:48:33.837Z,97137.66
2023-08-14T06:51:35.536Z,97140.25
2023-08-14T06:54:37.373Z,97135.75
2023-08-14T06:57:38.893Z,97142.19
2023-08-14T07:00:40.487Z,97145.41
2023-08-14T07:03:42.184Z,97136.59
2023-08-14T07:06:43.835Z,97130.69
2023-08-14T07:09:45.515Z,97132.59
2023-08-14T07:12:47.082Z,97128.00
2023-08-14T07:15:49.199Z,97134.53
2023-08-14T07:18:50.768Z,97137.63
2023-08-14T07:21:52.336Z,97138.19
2023-08-14T07:24:53.865Z,97140.34
2023-08-14T07:27:55.460Z,97149.50
2023-08-14T07:30:57.013Z,97148.69
2023-08-14T07:33:58.610Z,97158.41
2023-08-14T07:37:00.171Z,97157.88
2023-08-14T07:40:01.804Z,97161.13
2023-08-14T07:43:03.496Z,97173.25
2023-08-14T07:46:05.119Z,97173.31
2023-08-14T07:49:06.655Z,97179.53
2023-08-14T07:52:08.255Z,97179.25
2023-08-14T07:55:09.799Z,97183.28
2023-08-14T07:58:11.397Z,97184.63
2023-08-14T08:01:13.034Z,97180.03
2023-08-14T08:04:26.711Z,97186.00
2023-08-14T08:07:28.934Z,97186.25
2023-08-14T08:10:31.174Z,97183.00
2023-08-14T08:13:32.721Z,97183.56
2023-08-14T08:16:37.237Z,97184.41
2023-08-14T08:19:38.992Z,97194.44
2023-08-14T08:22:40.652Z,97192.78
2023-08-14T08:25:42.174Z,97186.03
2023-08-14T08:28:43.695Z,97185.44
2023-08-14T08:31:45.254Z,97184.34
2023-08-14T08:34:46.853Z,97185.75
2023-08-14T08:37:48.369Z,97184.69
2023-08-14T08:40:50.310Z,97192.78
2023-08-14T08:44:17.618Z,97195.50
2023-08-14T08:47:24.145Z,97190.63
2023-08-14T08:50:27.059Z,97184.34
2023-08-14T08:53:29.473Z,97189.81
2023-08-14T08:56:31.181Z,97191.00
2023-08-14T08:59:34.117Z,97183.72
2023-08-14T09:02:36.189Z,97186.88
2023-08-14T09:05:37.996Z,97194.47
2023-08-14T09:08:39.581Z,97200.84
2023-08-14T09:11:41.464Z,97195.41
2023-08-14T09:14:46.166Z,97193.41
2023-08-14T09:17:47.754Z,97198.75
2023-08-14T09:20:49.323Z,97201.91
2023-08-14T09:23:50.908Z,97199.47
2023-08-14T09:26:53.372Z,97209.13
2023-08-14T09:29:55.256Z,97214.63
2023-08-14T09:32:57.181Z,97218.06
2023-08-14T09:35:59.228Z,97227.69
2023-08-14T09:39:01.331Z,97238.13
2023-08-14T09:42:02.963Z,97246.59
2023-08-14T09:45:04.869Z,97255.47
2023-08-14T09:48:06.925Z,97254.09
2023-08-14T09:51:16.482Z,97264.69
2023-08-14T09:54:18.218Z,97272.63
2023-08-14T09:57:27.510Z,97261.97
2023-08-14T10:00:33.082Z,97268.97
2023-08-14T10:03:39.945Z,97267.91
2023-08-14T10:06:41.649Z,97262.00
2023-08-14T10:09:46.823Z,97270.56
2023-08-14T10:12:55.057Z,97282.63
2023-08-14T10:15:59.186Z,97277.88
2023-08-14T10:19:04.366Z,97272.78
2023-08-14T10:22:07.579Z,97263.66
2023-08-14T10:25:09.927Z,97265.41
2023-08-14T10:28:11.483Z,97264.34
2023-08-14T10:31:13.772Z,97261.84
2023-08-14T10:34:17.455Z,97255.94
2023-08-14T10:37:30.239Z,97263.88
2023-08-14T10:40:31.802Z,97265.94
2023-08-14T10:43:33.383Z,97253.00
2023-08-14T10:46:41.763Z,97253.72
2023-08-14T10:49:49.678Z,97251.50
2023-08-14T10:52:56.447Z,97254.94
2023-08-14T10:55:59.029Z,97261.50
2023-08-14T10:59:00.564Z,97244.66
2023-08-14T11:02:10.933Z,97250.19
2023-08-14T11:05:14.688Z,97243.81
2023-08-14T11:08:17.503Z,97246.06
2023-08-14T11:11:19.051Z,97247.88
2023-08-14T11:14:20.699Z,97246.84
2023-08-14T11:17:24.677Z,97251.13
2023-08-14T11:20:31.044Z,97243.47
2023-08-14T11:23:34.407Z,97246.34
2023-08-14T11:26:35.873Z,97243.53
2023-08-14T11:29:51.683Z,97242.22
2023-08-14T11:32:55.362Z,97235.47
2023-08-14T11:36:03.980Z,97222.78
2023-08-14T11:39:12.919Z,97229.03
2023-08-14T11:42:14.650Z,97223.63
2023-08-14T11:45:16.313Z,97220.25
2023-08-14T11:48:18.032Z,97211.72
2023-08-14T11:51:20.881Z,97204.63
2023-08-14T11:54:23.165Z,97208.53
2023-08-14T11:57:31.147Z,97194.81
2023-08-14T12:00:34.368Z,97199.72
2023-08-14T12:03:36.267Z,97185.66
2023-08-14T12:06:37.924Z,97184.91
2023-08-14T12:09:40.130Z,97179.66
2023-08-14T12:12:51.421Z,97175.44
2023-08-14T12:15:56.908Z,97168.97
2023-08-14T12:18:58.596Z,97164.69
2023-08-14T12:22:01.384Z,97162.88
2023-08-14T12:25:05.832Z,97152.00
2023-08-14T12:28:07.362Z,97148.97
2023-08-14T12:31:08.968Z,97154.91
2023-08-14T12:34:10.627Z,97156.69
2023-08-14T12:37:15.234Z,97152.78
2023-08-14T12:40:16.826Z,97162.31
2023-08-14T12:43:21.302Z,97157.91
2023-08-14T12:46:26.937Z,97156.50
2023-08-14T12:49:28.722Z,97155.28
2023-08-14T12:52:30.786Z,97159.72
2023-08-14T12:55:32.627Z,97149.09
2023-08-14T12:58:34.202Z,97149.69
2023-08-14T13:01:36.194Z,97137.00
2023-08-14T13:07:44.372Z,97150.00
2023-08-14T13:10:45.878Z,97164.81
2023-08-14T13:13:49.435Z,97138.06
2023-08-14T13:16:51.068Z,97122.72
2023-08-14T13:19:53.626Z,97137.72
2023-08-14T13:22:55.693Z,97145.63
2023-08-14T13:25:57.253Z,97158.31
2023-08-14T13:28:58.796Z,97157.84
2023-08-14T13:32:00.362Z,97159.38
2023-08-14T13:35:01.968Z,97148.53
2023-08-14T13:38:03.545Z,97141.84
2023-08-14T13:41:05.210Z,97145.09
2023-08-14T13:44:06.900Z,97147.44
2023-08-14T13:47:08.641Z,97153.09
2023-08-14T13:50:12.126Z,97159.94
2023-08-14T13:53:18.295Z,97148.00
2023-08-14T13:56:19.896Z,97146.22
2023-08-14T13:59:21.431Z,97146.22
2023-08-14T14:02:22.958Z,97145.56
2023-08-14T14:05:24.647Z,97129.69
2023-08-14T14:08:26.250Z,97144.31
2023-08-14T14:11:27.790Z,97134.44
2023-08-14T14:14:29.332Z,97137.25
2023-08-14T14:17:30.835Z,97137.28
2023-08-14T14:20:33.229Z,97129.47
2023-08-14T14:23:34.792Z,97122.19
2023-08-14T14:26:36.333Z,97112.06
2023-08-14T14:29:37.978Z,97121.41
2023-08-14T14:32:39.532Z,97103.41
2023-08-14T14:35:41.124Z,97094.56
2023-08-14T14:38:42.622Z,97096.69
2023-08-14T14:41:44.491Z,97088.91
2023-08-14T14:44:47.862Z,97085.31
2023-08-14T14:47:49.439Z,97082.22
2023-08-14T14:50:55.583Z,97090.16
2023-08-14T14:53:57.165Z,97086.38
2023-08-14T14:56:58.676Z,97085.25
2023-08-14T15:00:00.242Z,97084.00
2023-08-14T15:03:01.844Z,97077.81
2023-08-14T15:06:05.208Z,97077.38
2023-08-14T15:09:07.145Z,97073.03
2023-08-14T15:12:08.775Z,97067.91
2023-08-14T15:15:10.485Z,97059.19
2023-08-14T15:18:12.195Z,97053.97
